createdAt,value
2019-05-29T00:00:32.272Z,14.20
2019-05-29T00:01:10.367Z,14.20
2019-05-29T00:01:43.696Z,14.20
2019-05-29T00:02:18.676Z,14.20
2019-05-29T00:02:52.814Z,14.20
2019-05-29T00:03:27.801Z,14.20
2019-05-29T00:04:02.618Z,14.20
2019-05-29T00:04:36.868Z,14.20
2019-05-29T00:05:12.331Z,14.20
2019-05-29T00:05:47.134Z,14.30
2019-05-29T00:06:21.455Z,14.20
2019-05-29T00:06:56.075Z,14.20
2019-05-29T00:07:30.975Z,14.20
2019-05-29T00:08:06.303Z,14.20
2019-05-29T00:08:41.355Z,14.20
2019-05-29T00:09:16.106Z,14.20
2019-05-29T00:09:50.454Z,14.20
2019-05-29T00:10:25.303Z,14.20
2019-05-29T00:10:59.958Z,14.20
2019-05-29T00:11:34.462Z,14.20
2019-05-29T00:12:13.671Z,14.30
2019-05-29T00:12:45.971Z,14.20
2019-05-29T00:13:20.246Z,14.20
2019-05-29T00:13:55.246Z,14.30
2019-05-29T00:14:30.015Z,14.20
2019-05-29T00:15:04.427Z,14.20
2019-05-29T00:15:39.233Z,14.20
2019-05-29T00:16:14.509Z,14.30
2019-05-29T00:16:48.853Z,14.30
2019-05-29T00:17:23.494Z,14.30
2019-05-29T00:17:58.351Z,14.30
2019-05-29T00:18:32.719Z,14.30
2019-05-29T00:19:08.783Z,14.20
2019-05-29T00:19:43.662Z,14.20
2019-05-29T00:20:18.676Z,14.20
2019-05-29T00:20:53.671Z,14.20
2019-05-29T00:21:28.624Z,14.20
2019-05-29T00:22:02.989Z,14.20
2019-05-29T00:22:37.716Z,14.20
2019-05-29T00:23:12.597Z,14.20
2019-05-29T00:23:47.070Z,14.20
2019-05-29T00:24:21.774Z,14.20
2019-05-29T00:24:56.506Z,14.20
2019-05-29T00:25:30.665Z,14.20
2019-05-29T00:26:06.323Z,14.20
2019-05-29T00:26:41.365Z,14.20
2019-05-29T00:27:15.683Z,14.20
2019-05-29T00:27:50.755Z,14.20
2019-05-29T00:28:25.481Z,14.20
2019-05-29T00:28:59.947Z,14.20
2019-05-29T00:29:34.817Z,14.20
2019-05-29T00:30:10.852Z,14.20
2019-05-29T00:30:44.927Z,14.20
2019-05-29T00:31:19.862Z,14.20
2019-05-29T00:31:54.714Z,14.20
2019-05-29T00:32:28.902Z,14.20
2019-05-29T00:33:03.830Z,14.20
2019-05-29T00:33:38.447Z,14.20
2019-05-29T00:34:13.056Z,14.20
2019-05-29T00:34:48.059Z,14.20
2019-05-29T00:35:22.982Z,14.20
2019-05-29T00:35:57.176Z,14.20
2019-05-29T00:36:31.937Z,14.20
2019-05-29T00:37:06.651Z,14.20
2019-05-29T00:37:40.835Z,14.20
2019-05-29T00:38:16.664Z,14.20
2019-05-29T00:38:51.639Z,14.10
2019-05-29T00:39:26.087Z,14.20
2019-05-29T00:40:01.096Z,14.20
2019-05-29T00:40:35.906Z,14.20
2019-05-29T00:41:10.827Z,14.20
2019-05-29T00:41:45.742Z,14.20
2019-05-29T00:42:20.802Z,14.20
2019-05-29T00:42:55.377Z,14.20
2019-05-29T00:43:30.127Z,14.20
2019-05-29T00:44:05.444Z,14.20
2019-05-29T00:44:39.631Z,14.20
2019-05-29T00:45:15.718Z,14.20
2019-05-29T00:45:50.571Z,14.20
2019-05-29T00:46:24.761Z,14.10
2019-05-29T00:46:59.525Z,14.20
2019-05-29T00:47:34.424Z,14.20
2019-05-29T00:48:09.581Z,14.20
2019-05-29T00:48:44.760Z,14.20
2019-05-29T00:49:19.732Z,14.20
2019-05-29T00:49:53.893Z,14.20
2019-05-29T00:50:28.741Z,14.20
2019-05-29T00:51:03.380Z,14.20
2019-05-29T00:51:37.512Z,14.20
2019-05-29T00:52:12.413Z,14.20
2019-05-29T00:52:47.134Z,14.20
2019-05-29T00:53:21.274Z,14.10
2019-05-29T00:53:56.173Z,14.10
2019-05-29T00:54:31.066Z,14.10
2019-05-29T00:55:05.918Z,14.10
2019-05-29T00:55:40.759Z,14.10
2019-05-29T00:56:16.648Z,14.10
2019-05-29T00:56:51.073Z,14.00
2019-05-29T00:57:26.126Z,14.10
2019-05-29T00:58:00.914Z,14.00
2019-05-29T00:58:35.255Z,14.00
2019-05-29T00:59:11.052Z,14.00
2019-05-29T00:59:46.082Z,14.00
2019-05-29T01:00:20.372Z,14.00
2019-05-29T01:00:55.340Z,14.00
2019-05-29T01:01:30.170Z,14.00
2019-05-29T01:02:04.650Z,13.90
2019-05-29T01:02:39.582Z,13.90
2019-05-29T01:03:14.302Z,13.90
2019-05-29T01:03:48.460Z,13.90
2019-05-29T01:04:23.193Z,13.90
2019-05-29T01:04:57.965Z,13.80
2019-05-29T01:05:32.304Z,13.80
2019-05-29T01:06:06.927Z,13.80
2019-05-29T01:06:41.634Z,13.80
2019-05-29T01:07:20.410Z,13.80
2019-05-29T01:07:55.311Z,13.80
2019-05-29T01:08:30.094Z,13.80
2019-05-29T01:09:06.996Z,13.90
2019-05-29T01:09:41.924Z,13.80
2019-05-29T01:10:18.938Z,13.80
2019-05-29T01:10:53.202Z,13.90
2019-05-29T01:11:28.184Z,13.80
2019-05-29T01:12:03.208Z,13.80
2019-05-29T01:12:37.352Z,13.80
2019-05-29T01:13:13.144Z,13.80
2019-05-29T01:13:48.195Z,13.80
2019-05-29T01:14:22.522Z,13.80
2019-05-29T01:14:57.358Z,13.80
2019-05-29T01:15:32.235Z,13.80
2019-05-29T01:16:06.455Z,13.80
2019-05-29T01:16:41.261Z,13.80
2019-05-29T01:17:15.977Z,13.80
2019-05-29T01:17:50.321Z,13.80
2019-05-29T01:18:25.312Z,13.80
2019-05-29T01:19:20.165Z,13.80
2019-05-29T01:19:54.694Z,13.70
2019-05-29T01:20:29.615Z,13.80
2019-05-29T01:21:04.528Z,13.70
2019-05-29T01:21:40.176Z,13.70
2019-05-29T01:22:16.066Z,13.70
2019-05-29T01:22:51.207Z,13.70
2019-05-29T01:23:25.605Z,13.70
2019-05-29T01:24:00.340Z,13.60
2019-05-29T01:24:35.273Z,13.60
2019-05-29T01:25:10.008Z,13.60
2019-05-29T01:25:44.924Z,13.60
2019-05-29T01:26:20.787Z,13.70
2019-05-29T01:26:55.264Z,13.70
2019-05-29T01:27:30.192Z,13.60
2019-05-29T01:28:05.144Z,13.60
2019-05-29T01:28:39.309Z,13.60
2019-05-29T01:29:14.962Z,13.60
2019-05-29T01:29:49.847Z,13.60
2019-05-29T01:30:24.163Z,13.60
2019-05-29T01:30:59.167Z,13.60
2019-05-29T01:31:34.103Z,13.50
2019-05-29T01:32:08.516Z,13.50
2019-05-29T01:32:43.535Z,13.50
2019-05-29T01:33:20.458Z,13.50
2019-05-29T01:33:54.327Z,13.50
2019-05-29T01:34:29.037Z,13.50
2019-05-29T01:35:03.954Z,13.50
2019-05-29T01:35:38.213Z,13.50
2019-05-29T01:36:13.867Z,13.50
2019-05-29T01:36:48.911Z,13.50
2019-05-29T01:37:24.283Z,13.50
2019-05-29T01:37:59.628Z,13.50
2019-05-29T01:38:34.478Z,13.50
2019-05-29T01:39:08.809Z,13.50
2019-05-29T01:39:43.659Z,13.50
2019-05-29T01:40:24.488Z,13.50
2019-05-29T01:40:55.004Z,13.50
2019-05-29T01:41:30.021Z,13.40
2019-05-29T01:42:05.114Z,13.40
2019-05-29T01:42:39.500Z,13.40
2019-05-29T01:43:15.343Z,13.50
2019-05-29T01:43:50.189Z,13.40
2019-05-29T01:44:24.734Z,13.40
2019-05-29T01:45:07.772Z,13.50
2019-05-29T01:45:36.243Z,13.40
2019-05-29T01:46:10.542Z,13.40
2019-05-29T01:46:45.486Z,13.40
2019-05-29T01:47:21.508Z,13.40
2019-05-29T01:47:55.831Z,13.40
2019-05-29T01:48:30.718Z,13.40
2019-05-29T01:49:05.810Z,13.40
2019-05-29T01:49:39.991Z,13.40
2019-05-29T01:50:15.550Z,13.40
2019-05-29T01:50:50.314Z,13.40
2019-05-29T01:51:24.475Z,13.40
2019-05-29T01:51:59.251Z,13.40
2019-05-29T01:52:34.172Z,13.30
2019-05-29T01:53:08.438Z,13.30
2019-05-29T01:53:43.390Z,13.30
2019-05-29T01:54:18.020Z,13.30
2019-05-29T01:54:52.282Z,13.30
2019-05-29T01:55:27.988Z,13.30
2019-05-29T01:56:02.931Z,13.30
2019-05-29T01:56:37.065Z,13.30
2019-05-29T01:57:12.483Z,13.30
2019-05-29T01:57:47.274Z,13.30
2019-05-29T01:58:21.991Z,13.20
2019-05-29T01:58:57.227Z,13.20
2019-05-29T01:59:32.116Z,13.20
2019-05-29T02:00:07.492Z,13.20
2019-05-29T02:00:42.471Z,13.20
2019-05-29T02:01:18.016Z,13.20
2019-05-29T02:01:52.507Z,13.20
2019-05-29T02:02:28.255Z,13.20
2019-05-29T02:03:03.207Z,13.10
2019-05-29T02:03:37.635Z,13.10
2019-05-29T02:04:12.615Z,13.10
2019-05-29T02:04:47.333Z,13.10
2019-05-29T02:05:22.038Z,13.10
2019-05-29T02:05:57.167Z,13.10
2019-05-29T02:06:32.292Z,13.10
2019-05-29T02:07:06.998Z,13.10
2019-05-29T02:07:41.804Z,13.10
2019-05-29T02:08:17.971Z,13.00
2019-05-29T02:08:52.458Z,13.00
2019-05-29T02:09:28.373Z,13.00
2019-05-29T02:10:03.439Z,13.00
2019-05-29T02:10:37.950Z,13.00
2019-05-29T02:11:13.323Z,13.00
2019-05-29T02:11:48.147Z,13.00
2019-05-29T02:12:22.421Z,13.00
2019-05-29T02:12:57.614Z,13.00
2019-05-29T02:13:32.467Z,12.90
2019-05-29T02:14:06.864Z,13.00
2019-05-29T02:14:41.781Z,12.90
2019-05-29T02:15:26.021Z,12.90
2019-05-29T02:15:54.782Z,13.00
2019-05-29T02:16:29.643Z,12.90
2019-05-29T02:17:04.675Z,13.00
2019-05-29T02:17:39.112Z,13.00
2019-05-29T02:18:13.938Z,12.90
2019-05-29T02:18:48.882Z,12.90
2019-05-29T02:19:24.025Z,13.00
2019-05-29T02:19:59.148Z,12.90
2019-05-29T02:20:33.949Z,12.90
2019-05-29T02:21:08.174Z,12.90
2019-05-29T02:21:43.727Z,12.90
2019-05-29T02:22:18.880Z,12.90
2019-05-29T02:22:53.365Z,12.90
2019-05-29T02:23:28.367Z,12.90
2019-05-29T02:24:03.554Z,12.90
2019-05-29T02:24:37.737Z,12.90
2019-05-29T02:25:15.927Z,12.90
2019-05-29T02:25:49.784Z,12.90
2019-05-29T02:26:24.444Z,12.80
2019-05-29T02:26:59.863Z,12.90
2019-05-29T02:27:34.832Z,12.90
2019-05-29T02:28:09.379Z,12.90
2019-05-29T02:28:44.094Z,12.90
2019-05-29T02:29:19.124Z,12.80
2019-05-29T02:29:53.487Z,12.90
2019-05-29T02:30:30.688Z,12.90
2019-05-29T02:31:05.067Z,12.90
2019-05-29T02:31:39.467Z,12.80
2019-05-29T02:32:14.267Z,12.90
2019-05-29T02:32:49.045Z,12.90
2019-05-29T02:33:24.210Z,12.80
2019-05-29T02:33:59.958Z,12.80
2019-05-29T02:34:34.897Z,12.80
2019-05-29T02:35:09.435Z,12.80
2019-05-29T02:35:44.417Z,12.80
2019-05-29T02:36:20.357Z,12.80
2019-05-29T02:36:55.111Z,12.80
2019-05-29T02:37:30.056Z,12.80
2019-05-29T02:38:05.090Z,12.70
2019-05-29T02:38:39.472Z,12.70
2019-05-29T02:39:14.287Z,12.70
2019-05-29T02:39:49.291Z,12.60
2019-05-29T02:40:25.816Z,12.60
2019-05-29T02:41:00.765Z,12.60
2019-05-29T02:41:35.912Z,12.60
2019-05-29T02:42:10.582Z,12.60
2019-05-29T02:42:45.441Z,12.60
2019-05-29T02:43:21.375Z,12.60
2019-05-29T02:43:56.444Z,12.60
2019-05-29T02:44:31.303Z,12.60
2019-05-29T02:45:08.308Z,12.60
2019-05-29T02:45:53.796Z,12.60
2019-05-29T02:46:19.429Z,12.60
2019-05-29T02:46:54.563Z,12.60
2019-05-29T02:47:30.257Z,12.60
2019-05-29T02:48:05.465Z,12.60
2019-05-29T02:48:40.367Z,12.60
2019-05-29T02:49:14.579Z,12.60
2019-05-29T02:49:49.392Z,12.50
2019-05-29T02:50:26.194Z,12.50
2019-05-29T02:51:00.541Z,12.50
2019-05-29T02:51:35.523Z,12.50
2019-05-29T02:52:10.415Z,12.50
2019-05-29T02:52:44.952Z,12.50
2019-05-29T02:53:20.055Z,12.50
2019-05-29T02:53:54.927Z,12.50
2019-05-29T02:54:30.096Z,12.50
2019-05-29T02:55:07.333Z,12.50
2019-05-29T02:55:42.283Z,12.50
2019-05-29T02:56:16.418Z,12.50
2019-05-29T02:56:51.494Z,12.50
2019-05-29T02:57:26.942Z,12.40
2019-05-29T02:58:01.394Z,12.40
2019-05-29T02:58:36.241Z,12.40
2019-05-29T02:59:11.117Z,12.40
2019-05-29T02:59:45.244Z,12.40
2019-05-29T03:00:23.389Z,12.40
2019-05-29T03:00:58.641Z,12.40
2019-05-29T03:01:33.011Z,12.30
2019-05-29T03:02:08.069Z,12.30
2019-05-29T03:02:42.784Z,12.30
2019-05-29T03:03:17.303Z,12.20
2019-05-29T03:03:52.388Z,12.20
2019-05-29T03:04:28.164Z,12.20
2019-05-29T03:05:03.304Z,12.20
2019-05-29T03:05:38.203Z,12.20
2019-05-29T03:06:13.587Z,12.20
2019-05-29T03:06:47.963Z,12.20
2019-05-29T03:07:24.303Z,12.20
2019-05-29T03:07:59.652Z,12.20
2019-05-29T03:08:34.490Z,12.20
2019-05-29T03:09:09.788Z,12.20
2019-05-29T03:09:45.303Z,12.20
2019-05-29T03:10:19.710Z,12.20
2019-05-29T03:10:54.608Z,12.20
2019-05-29T03:11:31.059Z,12.20
2019-05-29T03:12:05.475Z,12.20
2019-05-29T03:12:41.236Z,12.20
2019-05-29T03:13:16.496Z,12.20
2019-05-29T03:13:51.418Z,12.20
2019-05-29T03:14:27.269Z,12.20
2019-05-29T03:15:02.412Z,12.20
2019-05-29T03:15:36.462Z,12.10
2019-05-29T03:16:12.831Z,12.20
2019-05-29T03:16:47.708Z,12.20
2019-05-29T03:17:23.519Z,12.20
2019-05-29T03:17:58.793Z,12.10
2019-05-29T03:18:34.994Z,12.10
2019-05-29T03:19:09.676Z,12.10
2019-05-29T03:19:44.334Z,12.20
2019-05-29T03:20:19.254Z,12.10
2019-05-29T03:20:53.662Z,12.20
2019-05-29T03:21:30.437Z,12.10
2019-05-29T03:22:05.214Z,12.10
2019-05-29T03:22:39.580Z,12.10
2019-05-29T03:23:14.467Z,12.10
2019-05-29T03:23:49.398Z,12.20
2019-05-29T03:24:24.471Z,12.20
2019-05-29T03:24:59.301Z,12.20
2019-05-29T03:25:35.134Z,12.10
2019-05-29T03:26:10.070Z,12.20
2019-05-29T03:26:44.929Z,12.10
2019-05-29T03:27:19.813Z,12.10
2019-05-29T03:27:54.208Z,12.10
2019-05-29T03:28:29.935Z,12.10
2019-05-29T03:29:05.388Z,12.10
2019-05-29T03:29:39.686Z,12.10
2019-05-29T03:30:14.519Z,12.20
2019-05-29T03:30:49.459Z,12.10
2019-05-29T03:31:23.837Z,12.10
2019-05-29T03:31:58.538Z,12.10
2019-05-29T03:32:42.229Z,12.10
2019-05-29T03:33:09.429Z,12.20
2019-05-29T03:33:49.024Z,12.10
2019-05-29T03:34:21.147Z,12.10
2019-05-29T03:34:55.638Z,12.10
2019-05-29T03:35:37.714Z,12.10
2019-05-29T03:36:07.270Z,12.10
2019-05-29T03:36:47.135Z,12.10
2019-05-29T03:37:18.146Z,12.10
2019-05-29T03:37:53.096Z,12.10
2019-05-29T03:38:28.345Z,12.10
2019-05-29T03:39:03.715Z,12.10
2019-05-29T03:39:38.754Z,12.10
2019-05-29T03:40:13.153Z,12.10
2019-05-29T03:40:49.178Z,12.10
2019-05-29T03:41:24.104Z,12.00
2019-05-29T03:41:58.405Z,12.00
2019-05-29T03:42:34.470Z,12.00
2019-05-29T03:43:09.405Z,12.00
2019-05-29T03:43:43.779Z,12.00
2019-05-29T03:44:18.595Z,12.00
2019-05-29T03:44:53.515Z,12.00
2019-05-29T03:45:28.950Z,12.00
2019-05-29T03:46:04.687Z,12.00
2019-05-29T03:46:45.332Z,11.90
2019-05-29T03:47:15.503Z,11.90
2019-05-29T03:47:50.400Z,11.90
2019-05-29T03:48:25.937Z,11.90
2019-05-29T03:49:00.959Z,11.90
2019-05-29T03:49:37.243Z,11.90
2019-05-29T03:50:15.627Z,11.80
2019-05-29T03:50:49.057Z,11.80
2019-05-29T03:51:23.755Z,11.80
2019-05-29T03:51:58.477Z,11.80
2019-05-29T03:52:34.670Z,11.80
2019-05-29T03:53:09.275Z,11.80
2019-05-29T03:53:44.720Z,11.80
2019-05-29T03:54:19.294Z,11.80
2019-05-29T03:54:54.305Z,11.80
2019-05-29T03:55:29.477Z,11.80
2019-05-29T03:56:04.134Z,11.80
2019-05-29T03:56:39.164Z,11.80
2019-05-29T03:57:14.024Z,11.80
2019-05-29T03:57:48.373Z,11.80
2019-05-29T03:58:23.298Z,11.80
2019-05-29T03:58:58.257Z,11.80
2019-05-29T03:59:32.791Z,11.80
2019-05-29T04:00:08.394Z,11.70
2019-05-29T04:00:46.419Z,11.70
2019-05-29T04:01:19.332Z,11.70
2019-05-29T04:01:54.457Z,11.70
2019-05-29T04:02:31.228Z,11.70
2019-05-29T04:03:05.581Z,11.70
2019-05-29T04:03:40.545Z,11.70
2019-05-29T04:04:15.443Z,11.70
2019-05-29T04:04:49.965Z,11.70
2019-05-29T04:05:24.984Z,11.60
2019-05-29T04:05:59.848Z,11.60
2019-05-29T04:06:35.611Z,11.70
2019-05-29T04:07:10.601Z,11.60
2019-05-29T04:07:45.410Z,11.70
2019-05-29T04:08:19.715Z,11.60
2019-05-29T04:08:54.693Z,11.60
2019-05-29T04:09:31.114Z,11.60
2019-05-29T04:10:07.397Z,11.60
2019-05-29T04:10:42.749Z,11.60
2019-05-29T04:11:17.526Z,11.60
2019-05-29T04:11:52.164Z,11.60
2019-05-29T04:12:27.078Z,11.60
2019-05-29T04:13:02.523Z,11.60
2019-05-29T04:13:38.734Z,11.60
2019-05-29T04:14:13.986Z,11.70
2019-05-29T04:14:49.945Z,11.60
2019-05-29T04:15:24.265Z,11.70
2019-05-29T04:16:01.656Z,11.70
2019-05-29T04:16:58.118Z,11.70
2019-05-29T04:17:15.069Z,11.70
2019-05-29T04:17:50.139Z,11.70
2019-05-29T04:18:27.600Z,11.60
2019-05-29T04:19:04.422Z,11.60
2019-05-29T04:19:39.614Z,11.60
2019-05-29T04:20:16.198Z,11.70
2019-05-29T04:20:52.336Z,11.60
2019-05-29T04:21:27.900Z,11.60
2019-05-29T04:22:09.654Z,11.60
2019-05-29T04:22:45.754Z,11.60
2019-05-29T04:23:21.518Z,11.60
2019-05-29T04:23:58.479Z,11.60
2019-05-29T04:24:34.037Z,11.60
2019-05-29T04:25:09.593Z,11.60
2019-05-29T04:25:46.216Z,11.60
2019-05-29T04:26:22.446Z,11.50
2019-05-29T04:26:58.585Z,11.50
2019-05-29T04:27:36.126Z,11.60
2019-05-29T04:28:10.969Z,11.60
2019-05-29T04:28:46.491Z,11.50
2019-05-29T04:29:21.587Z,11.50
2019-05-29T04:29:58.391Z,11.60
2019-05-29T04:30:36.300Z,11.50
2019-05-29T04:31:11.447Z,11.50
2019-05-29T04:31:45.818Z,11.50
2019-05-29T04:32:21.065Z,11.50
2019-05-29T04:32:56.106Z,11.50
2019-05-29T04:33:32.464Z,11.40
2019-05-29T04:34:07.269Z,11.40
2019-05-29T04:34:42.321Z,11.40
2019-05-29T04:35:16.566Z,11.40
2019-05-29T04:35:51.607Z,11.40
2019-05-29T04:36:26.419Z,11.40
2019-05-29T04:37:00.809Z,11.30
2019-05-29T04:37:36.901Z,11.30
2019-05-29T04:38:12.498Z,11.30
2019-05-29T04:38:46.848Z,11.30
2019-05-29T04:39:21.596Z,11.30
2019-05-29T04:39:56.468Z,11.30
2019-05-29T04:40:30.749Z,11.30
2019-05-29T04:41:06.063Z,11.30
2019-05-29T04:41:41.011Z,11.30
2019-05-29T04:42:15.561Z,11.30
2019-05-29T04:42:50.590Z,11.20
2019-05-29T04:43:26.151Z,11.20
2019-05-29T04:44:00.870Z,11.20
2019-05-29T04:44:38.199Z,11.20
2019-05-29T04:45:13.741Z,11.10
2019-05-29T04:45:48.159Z,11.10
2019-05-29T04:46:23.312Z,11.10
2019-05-29T04:47:10.247Z,11.10
2019-05-29T04:47:37.339Z,11.10
2019-05-29T04:48:13.801Z,11.10
2019-05-29T04:48:48.551Z,11.10
2019-05-29T04:49:22.988Z,11.00
2019-05-29T04:49:58.030Z,11.10
2019-05-29T04:50:33.568Z,11.00
2019-05-29T04:51:09.449Z,11.00
2019-05-29T04:51:44.639Z,11.00
2019-05-29T04:52:22.625Z,11.00
2019-05-29T04:52:57.138Z,11.10
2019-05-29T04:53:33.511Z,11.00
2019-05-29T04:54:09.128Z,11.10
2019-05-29T04:54:43.623Z,11.10
2019-05-29T04:55:18.647Z,11.10
2019-05-29T04:55:53.503Z,11.10
2019-05-29T04:56:28.758Z,11.00
2019-05-29T04:57:03.832Z,11.00
2019-05-29T04:57:39.240Z,11.10
2019-05-29T04:58:13.764Z,11.10
2019-05-29T04:58:49.013Z,11.10
2019-05-29T04:59:23.904Z,11.10
2019-05-29T04:59:58.217Z,11.10
2019-05-29T05:00:33.202Z,11.10
2019-05-29T05:01:08.060Z,11.10
2019-05-29T05:01:42.534Z,11.10
2019-05-29T05:02:17.379Z,11.00
2019-05-29T05:02:52.282Z,11.10
2019-05-29T05:03:26.552Z,11.00
2019-05-29T05:04:01.564Z,11.10
2019-05-29T05:04:37.304Z,11.00
2019-05-29T05:05:11.739Z,11.10
2019-05-29T05:05:46.673Z,11.00
2019-05-29T05:06:21.682Z,11.00
2019-05-29T05:06:56.321Z,11.00
2019-05-29T05:07:31.234Z,11.00
2019-05-29T05:08:06.183Z,11.00
2019-05-29T05:08:40.465Z,11.10
2019-05-29T05:09:15.242Z,11.00
2019-05-29T05:09:50.370Z,11.10
2019-05-29T05:10:36.230Z,11.00
2019-05-29T05:11:12.139Z,11.00
2019-05-29T05:11:47.542Z,11.00
2019-05-29T05:12:22.133Z,11.00
2019-05-29T05:12:57.197Z,11.10
2019-05-29T05:13:31.986Z,11.00
2019-05-29T05:14:06.945Z,11.00
2019-05-29T05:14:41.820Z,11.00
2019-05-29T05:15:16.802Z,11.10
2019-05-29T05:15:52.748Z,11.00
2019-05-29T05:16:27.795Z,11.00
2019-05-29T05:17:02.863Z,11.00
2019-05-29T05:17:38.021Z,10.90
2019-05-29T05:18:13.409Z,10.90
2019-05-29T05:18:48.200Z,10.90
2019-05-29T05:19:22.813Z,10.90
2019-05-29T05:19:57.714Z,10.90
2019-05-29T05:20:33.934Z,10.90
2019-05-29T05:21:08.618Z,10.90
2019-05-29T05:21:43.856Z,10.80
2019-05-29T05:22:18.945Z,10.90
2019-05-29T05:22:53.645Z,10.80
2019-05-29T05:23:29.929Z,10.80
2019-05-29T05:24:05.358Z,10.80
2019-05-29T05:24:43.449Z,10.80
2019-05-29T05:25:16.536Z,10.80
2019-05-29T05:25:51.517Z,10.80
2019-05-29T05:26:25.816Z,10.70
2019-05-29T05:27:00.924Z,10.80
2019-05-29T05:27:36.472Z,10.80
2019-05-29T05:28:11.128Z,10.80
2019-05-29T05:28:46.884Z,10.80
2019-05-29T05:29:22.237Z,10.80
2019-05-29T05:29:56.681Z,10.80
2019-05-29T05:30:32.329Z,10.80
2019-05-29T05:31:07.648Z,10.70
2019-05-29T05:31:41.997Z,10.70
2019-05-29T05:32:17.058Z,10.70
2019-05-29T05:32:52.294Z,10.70
2019-05-29T05:33:26.511Z,10.70
2019-05-29T05:34:01.636Z,10.70
2019-05-29T05:34:36.916Z,10.70
2019-05-29T05:35:14.375Z,10.70
2019-05-29T05:35:47.990Z,10.70
2019-05-29T05:36:23.046Z,10.70
2019-05-29T05:36:57.423Z,10.70
2019-05-29T05:37:32.706Z,10.70
2019-05-29T05:38:07.795Z,10.70
2019-05-29T05:38:42.487Z,10.70
2019-05-29T05:39:17.525Z,10.70
2019-05-29T05:39:52.514Z,10.70
2019-05-29T05:40:27.006Z,10.70
2019-05-29T05:41:02.952Z,10.70
2019-05-29T05:41:38.890Z,10.70
2019-05-29T05:42:13.557Z,10.70
2019-05-29T05:42:48.757Z,10.70
2019-05-29T05:43:24.680Z,10.70
2019-05-29T05:43:58.987Z,10.70
2019-05-29T05:44:34.940Z,10.70
2019-05-29T05:45:10.490Z,10.70
2019-05-29T05:45:45.089Z,10.70
2019-05-29T05:46:20.133Z,10.70
2019-05-29T05:46:55.314Z,10.70
2019-05-29T05:47:45.110Z,10.70
2019-05-29T05:48:06.630Z,10.70
2019-05-29T05:48:42.228Z,10.70
2019-05-29T05:49:16.949Z,10.70
2019-05-29T05:49:52.137Z,10.70
2019-05-29T05:50:27.414Z,10.70
2019-05-29T05:51:01.832Z,10.70
2019-05-29T05:51:39.884Z,10.70
2019-05-29T05:52:13.452Z,10.70
2019-05-29T05:52:47.928Z,10.70
2019-05-29T05:53:22.871Z,10.70
2019-05-29T05:53:58.107Z,10.60
2019-05-29T05:54:33.361Z,10.70
2019-05-29T05:55:08.698Z,10.70
2019-05-29T05:55:43.913Z,10.70
2019-05-29T05:56:18.407Z,10.70
2019-05-29T05:56:53.812Z,10.70
2019-05-29T05:57:28.994Z,10.70
2019-05-29T05:58:03.493Z,10.70
2019-05-29T05:58:39.831Z,10.60
2019-05-29T05:59:15.108Z,10.60
2019-05-29T05:59:49.579Z,10.60
2019-05-29T06:00:33.801Z,10.60
2019-05-29T06:01:08.918Z,10.60
2019-05-29T06:01:43.574Z,10.70
2019-05-29T06:02:18.509Z,10.70
2019-05-29T06:02:53.348Z,10.70
2019-05-29T06:03:27.923Z,10.70
2019-05-29T06:04:03.029Z,10.70
2019-05-29T06:04:38.251Z,10.70
2019-05-29T06:05:12.947Z,10.70
2019-05-29T06:05:47.944Z,10.70
2019-05-29T06:06:22.856Z,10.70
2019-05-29T06:06:57.355Z,10.70
2019-05-29T06:07:32.356Z,10.70
2019-05-29T06:08:07.470Z,10.70
2019-05-29T06:08:42.547Z,10.70
2019-05-29T06:09:17.710Z,10.70
2019-05-29T06:09:52.690Z,10.70
2019-05-29T06:10:27.226Z,10.80
2019-05-29T06:11:02.264Z,10.80
2019-05-29T06:11:38.326Z,10.80
2019-05-29T06:12:12.922Z,10.80
2019-05-29T06:12:47.749Z,10.80
2019-05-29T06:13:22.803Z,10.70
2019-05-29T06:13:57.127Z,10.80
2019-05-29T06:14:32.380Z,10.80
2019-05-29T06:15:07.887Z,10.80
2019-05-29T06:15:42.923Z,10.80
2019-05-29T06:16:17.979Z,10.80
2019-05-29T06:16:53.081Z,10.80
2019-05-29T06:17:27.565Z,10.80
2019-05-29T06:18:19.809Z,10.80
2019-05-29T06:18:40.565Z,10.90
2019-05-29T06:19:15.137Z,10.90
2019-05-29T06:19:50.266Z,10.90
2019-05-29T06:20:25.160Z,10.90
2019-05-29T06:20:59.394Z,10.90
2019-05-29T06:21:34.617Z,10.90
2019-05-29T06:22:09.921Z,10.90
2019-05-29T06:22:44.403Z,10.90
2019-05-29T06:23:19.366Z,10.90
2019-05-29T06:23:54.272Z,10.90
2019-05-29T06:24:28.754Z,10.90
2019-05-29T06:25:03.812Z,10.90
2019-05-29T06:25:40.404Z,10.90
2019-05-29T06:26:14.802Z,10.90
2019-05-29T06:26:49.742Z,10.90
2019-05-29T06:27:24.528Z,10.90
2019-05-29T06:27:59.221Z,10.90
2019-05-29T06:28:35.027Z,10.90
2019-05-29T06:29:10.139Z,10.90
2019-05-29T06:29:45.374Z,11.00
2019-05-29T06:30:21.749Z,11.00
2019-05-29T06:30:56.785Z,11.00
2019-05-29T06:31:31.176Z,11.00
2019-05-29T06:32:06.088Z,11.00
2019-05-29T06:32:41.549Z,11.00
2019-05-29T06:33:16.172Z,10.90
2019-05-29T06:33:51.190Z,10.90
2019-05-29T06:34:26.260Z,10.90
2019-05-29T06:35:00.776Z,10.90
2019-05-29T06:35:35.993Z,10.90
2019-05-29T06:36:11.290Z,10.90
2019-05-29T06:36:48.122Z,10.90
2019-05-29T06:37:22.521Z,10.90
2019-05-29T06:37:57.435Z,10.80
2019-05-29T06:38:31.881Z,10.90
2019-05-29T06:39:08.447Z,10.90
2019-05-29T06:39:43.913Z,10.90
2019-05-29T06:40:31.570Z,10.90
2019-05-29T06:41:06.907Z,10.90
2019-05-29T06:41:42.070Z,10.90
2019-05-29T06:42:16.581Z,10.90
2019-05-29T06:42:51.517Z,10.90
2019-05-29T06:43:27.146Z,10.90
2019-05-29T06:44:01.798Z,10.90
2019-05-29T06:44:39.393Z,11.00
2019-05-29T06:45:15.613Z,11.00
2019-05-29T06:45:50.362Z,11.00
2019-05-29T06:46:25.254Z,11.00
2019-05-29T06:47:00.403Z,11.00
2019-05-29T06:47:36.450Z,11.00
2019-05-29T06:48:14.905Z,11.10
2019-05-29T06:48:59.846Z,11.10
2019-05-29T06:49:25.879Z,11.20
2019-05-29T06:50:00.677Z,11.20
2019-05-29T06:50:37.259Z,11.20
2019-05-29T06:51:12.265Z,11.30
2019-05-29T06:51:47.527Z,11.30
2019-05-29T06:52:22.744Z,11.40
2019-05-29T06:52:57.137Z,11.40
2019-05-29T06:53:32.148Z,11.40
2019-05-29T06:54:07.564Z,11.40
2019-05-29T06:54:42.286Z,11.50
2019-05-29T06:55:17.545Z,11.40
2019-05-29T06:55:54.862Z,11.40
2019-05-29T06:56:28.777Z,11.50
2019-05-29T06:57:04.005Z,11.50
2019-05-29T06:57:40.276Z,11.50
2019-05-29T06:58:14.834Z,11.50
2019-05-29T06:58:49.685Z,11.60
2019-05-29T06:59:24.688Z,11.60
2019-05-29T06:59:58.997Z,11.60
2019-05-29T07:00:35.638Z,11.60
2019-05-29T07:01:10.975Z,11.60
2019-05-29T07:01:45.380Z,11.60
2019-05-29T07:02:20.416Z,11.60
2019-05-29T07:02:55.454Z,11.60
2019-05-29T07:03:29.969Z,11.60
2019-05-29T07:04:11.940Z,11.60
2019-05-29T07:04:42.740Z,11.60
2019-05-29T07:05:17.349Z,11.60
2019-05-29T07:05:52.967Z,11.60
2019-05-29T07:06:28.234Z,11.60
2019-05-29T07:07:02.626Z,11.60
2019-05-29T07:07:38.207Z,11.50
2019-05-29T07:08:20.888Z,11.60
2019-05-29T07:08:50.284Z,11.60
2019-05-29T07:09:25.669Z,11.60
2019-05-29T07:10:00.679Z,11.60
2019-05-29T07:10:36.389Z,11.50
2019-05-29T07:11:11.614Z,11.50
2019-05-29T07:11:47.565Z,11.50
2019-05-29T07:12:22.041Z,11.50
2019-05-29T07:12:57.038Z,11.50
2019-05-29T07:13:34.861Z,11.50
2019-05-29T07:14:08.159Z,11.50
2019-05-29T07:14:44.458Z,11.50
2019-05-29T07:15:19.797Z,11.60
2019-05-29T07:15:54.080Z,11.60
2019-05-29T07:16:43.202Z,11.60
2019-05-29T07:17:05.582Z,11.60
2019-05-29T07:17:40.415Z,11.60
2019-05-29T07:18:15.775Z,11.60
2019-05-29T07:19:45.100Z,11.70
2019-05-29T07:20:04.206Z,11.80
2019-05-29T07:20:40.607Z,11.80
2019-05-29T07:21:15.441Z,11.80
2019-05-29T07:21:50.298Z,11.90
2019-05-29T07:22:25.349Z,12.00
2019-05-29T07:22:59.578Z,12.00
2019-05-29T07:23:34.605Z,12.00
2019-05-29T07:24:09.728Z,12.10
2019-05-29T07:24:45.066Z,12.00
2019-05-29T07:25:20.042Z,12.00
2019-05-29T07:25:55.046Z,12.10
2019-05-29T07:26:29.606Z,12.00
2019-05-29T07:27:04.685Z,12.00
2019-05-29T07:27:40.828Z,12.00
2019-05-29T07:28:15.297Z,12.00
2019-05-29T07:29:07.516Z,12.10
2019-05-29T07:29:26.757Z,12.00
2019-05-29T07:30:00.966Z,12.00
2019-05-29T07:30:37.364Z,12.10
2019-05-29T07:31:12.530Z,12.00
2019-05-29T07:31:47.321Z,12.00
2019-05-29T07:32:22.262Z,11.90
2019-05-29T07:32:59.120Z,12.00
2019-05-29T07:33:33.924Z,12.00
2019-05-29T07:34:08.834Z,12.00